createdAt,value
2019-01-22T00:01:58.202Z,71.30
2019-01-22T00:11:59.639Z,70.46
2019-01-22T00:22:01.165Z,71.54
2019-01-22T00:32:03.003Z,71.03
2019-01-22T00:42:04.580Z,69.96
2019-01-22T00:52:06.321Z,70.06
2019-01-22T01:02:08.024Z,68.96
2019-01-22T01:12:10.552Z,68.69
2019-01-22T01:22:12.136Z,68.65
2019-01-22T01:32:13.603Z,68.25
2019-01-22T01:42:15.028Z,68.26
2019-01-22T01:52:16.506Z,67.45
2019-01-22T02:02:19.077Z,67.46
2019-01-22T02:12:24.163Z,67.30
2019-01-22T02:22:43.041Z,67.01
2019-01-22T02:33:05.204Z,66.28
2019-01-22T02:43:15.449Z,66.65
2019-01-22T02:53:38.824Z,66.05
2019-01-22T03:03:53.496Z,66.42
2019-01-22T03:14:29.530Z,66.74
2019-01-22T03:25:03.094Z,67.62
2019-01-22T03:35:19.310Z,67.89
2019-01-22T03:45:29.527Z,68.07
2019-01-22T03:55:45.424Z,66.70
2019-01-22T04:05:47.005Z,65.93
2019-01-22T04:15:49.393Z,66.22
2019-01-22T04:26:02.265Z,67.55
2019-01-22T04:36:33.380Z,68.28
2019-01-22T04:47:00.957Z,67.00
2019-01-22T04:57:11.059Z,67.13
2019-01-22T05:07:35.189Z,66.33
2019-01-22T05:17:51.095Z,67.06
2019-01-22T05:28:19.356Z,66.33
2019-01-22T05:38:32.308Z,66.53
2019-01-22T05:48:48.455Z,66.53
2019-01-22T05:59:25.299Z,66.28
2019-01-22T06:10:07.789Z,67.39
2019-01-22T06:20:26.498Z,66.71
2019-01-22T06:30:45.913Z,66.50
2019-01-22T06:41:10.936Z,66.33
2019-01-22T06:51:52.745Z,65.41
2019-01-22T07:02:27.398Z,65.23
2019-01-22T07:12:49.915Z,65.88
2019-01-22T07:22:59.853Z,63.33
2019-01-22T07:33:23.629Z,58.78
2019-01-22T07:43:45.843Z,56.92
2019-01-22T07:54:11.597Z,54.28
2019-01-22T08:04:35.459Z,56.21
2019-01-22T08:14:54.947Z,57.67
2019-01-22T08:25:05.568Z,57.38
2019-01-22T08:35:40.041Z,60.90
2019-01-22T08:46:17.377Z,60.47
2019-01-22T08:56:46.038Z,60.39
2019-01-22T09:07:11.033Z,60.15
2019-01-22T09:17:44.008Z,55.63
2019-01-22T09:28:08.742Z,57.08
2019-01-22T09:38:10.921Z,56.86
2019-01-22T09:48:12.418Z,54.32
2019-01-22T09:58:13.850Z,52.41
2019-01-22T10:08:15.285Z,52.08
2019-01-22T10:18:16.873Z,53.25
2019-01-22T10:28:18.307Z,50.63
2019-01-22T10:38:19.830Z,51.52
2019-01-22T10:48:21.265Z,49.03
2019-01-22T10:58:22.805Z,47.92
2019-01-22T11:08:24.399Z,47.26
2019-01-22T11:18:25.841Z,49.07
2019-01-22T11:28:27.286Z,48.63
2019-01-22T11:38:28.810Z,45.50
2019-01-22T11:48:30.271Z,45.22
2019-01-22T11:58:31.705Z,44.90
2019-01-22T12:08:33.336Z,44.94
2019-01-22T12:18:34.771Z,45.12
2019-01-22T12:28:36.411Z,44.41
2019-01-22T12:38:37.916Z,44.15
2019-01-22T12:48:39.348Z,43.60
2019-01-22T12:58:41.139Z,44.58
2019-01-22T13:08:42.621Z,44.42
2019-01-22T13:18:44.057Z,44.74
2019-01-22T13:28:45.486Z,46.02
2019-01-22T13:38:47.207Z,47.97
2019-01-22T13:48:48.633Z,48.26
2019-01-22T13:58:50.070Z,49.87
2019-01-22T14:08:51.541Z,50.02
2019-01-22T14:18:53.030Z,50.49
2019-01-22T14:28:54.468Z,51.30
2019-01-22T14:38:56.018Z,53.30
2019-01-22T14:48:57.491Z,54.87
2019-01-22T14:58:58.936Z,56.33
2019-01-22T15:09:00.434Z,58.88
2019-01-22T15:19:01.865Z,59.76
2019-01-22T15:29:03.430Z,61.36
2019-01-22T15:39:07.148Z,62.81
2019-01-22T15:49:09.694Z,63.43
2019-01-22T15:59:11.133Z,63.99
2019-01-22T16:09:12.581Z,64.62
2019-01-22T16:19:14.057Z,65.09
2019-01-22T16:29:15.505Z,65.63
2019-01-22T16:39:17.044Z,65.50
2019-01-22T16:49:18.499Z,66.18
2019-01-22T16:59:19.980Z,66.66
2019-01-22T17:09:25.296Z,67.84
2019-01-22T17:19:24.811Z,67.85
2019-01-22T17:29:26.285Z,68.28
2019-01-22T17:39:27.729Z,68.21
2019-01-22T17:49:29.213Z,68.54
2019-01-22T17:59:30.758Z,68.20
2019-01-22T18:09:32.237Z,68.21
2019-01-22T18:19:33.677Z,68.42
2019-01-22T18:29:35.277Z,67.11
2019-01-22T18:39:36.708Z,68.31
2019-01-22T18:49:38.212Z,68.38
2019-01-22T18:59:39.686Z,70.01
2019-01-22T19:09:41.227Z,70.78
2019-01-22T19:19:42.654Z,70.89
2019-01-22T19:29:44.094Z,70.77
2019-01-22T19:39:45.623Z,70.91
2019-01-22T19:49:47.205Z,71.25
2019-01-22T19:59:49.022Z,71.89
2019-01-22T20:09:50.507Z,72.27
2019-01-22T20:19:52.066Z,71.82
2019-01-22T20:29:53.509Z,72.11
2019-01-22T20:39:55.042Z,71.78
2019-01-22T20:49:56.519Z,72.36
2019-01-22T20:59:57.959Z,71.45
2019-01-22T21:09:59.442Z,71.41
2019-01-22T21:20:02.252Z,71.04
2019-01-22T21:30:13.007Z,71.72
2019-01-22T21:40:14.793Z,72.91
2019-01-22T21:50:16.586Z,72.89
2019-01-22T22:00:25.570Z,73.44
2019-01-22T22:10:27.149Z,72.33
2019-01-22T22:20:28.832Z,72.21
2019-01-22T22:30:33.801Z,72.39
2019-01-22T22:40:35.234Z,72.19
2019-01-22T22:50:37.968Z,72.53
2019-01-22T23:00:54.363Z,72.53
2019-01-22T23:10:57.899Z,71.91
2019-01-22T23:20:59.386Z,71.47
2019-01-22T23:31:01.012Z,72.24
2019-01-22T23:41:02.853Z,71.37
2019-01-22T23:51:04.617Z,71.20
